Forside
METAR-TAF:

METAR-TAF

Lufthavne :

Pago Pago, USA's ydre småøer

Breddekreds: 14-20S, længdekreds: 170-43W, højde: 3 m

Aktuelle vejr

Denne rapport blev lavet for 40 minutter siden, kl. 05:50 UTC
Vind 11 kt fra østsydøst
Temperatur 27°C
Fugtighed 79%
Tryk 1009 hPa
Sigt: 16.1 km
Spredte skyer i en højde af 1900 ft
Brudte skyer i en højde af 4000 ft

METAR: NSTU 210550Z 11011KT 10SM SCT019 BKN040 27/23 A2980 RMK SLP093 8/800 T02690232 10295 20269 51019

Tid: 19:30 (06:30 UTC)

Vejrudsigter

Denne rapport blev lavet for 57 minutter siden, kl. 05:33 UTC
Foreløbig gælder fra 21 på 06 UTC til 22 på 06 UTC
Vind 13 kt fra østsydøst
Sigt: 10 km
Spredte skyer i en højde af 2000 ft
Spredte skyer i en højde af 4000 ft

TAF: NSTU 210533Z 2106/2206 12013KT P6SM SCT020 SCT040

Vejrobservationer og prognoser fra mere end 4000 lufthavne (METAR og TAF).

De gule og røde prikker repræsenterer de meteorologiske stationer.

Flyt musen over at se navnet på stationen.

Så klik over at se vejr observationer og prognoser.

At skifte det kort: Klik på de grønne knapper med et sort kors for at zoome ind; på den grønne knap med en bindestreg for at zoome ud; eller på de grønne pile for tilstødende kort.


METAR-TAF: